Time;durP1;ratioP1;P1;durP2;ratioP2;P2;SDS_P1;SDS_P2;PMS_P1;PMS_P2;Temp;Humidity;BMP_temperature;BMP_pressure;BME280_temperature;BME280_humidity;BME280_pressure;Samples;Min_cycle;Max_cycle;Signal;HPM_P1;HPM_P2
2022/04/17 00:00:00;;;;;;;1.80;1.50;;;;;;;2.96;74.12;99315.10;104943;1271;75753;-26
2022/04/17 00:02:34;;;;;;;1.20;1.10;;;;;;;2.86;74.84;99310.27;105122;1271;74402;-27
2022/04/17 00:05:05;;;;;;;1.30;1.20;;;;;;;2.76;75.23;99307.45;104966;1271;61025;-26
2022/04/17 00:07:34;;;;;;;1.70;1.30;;;;;;;2.54;76.28;99300.52;105085;1272;61273;-26
2022/04/17 00:10:03;;;;;;;1.20;1.10;;;;;;;2.43;76.79;99298.25;105146;1271;75448;-26
2022/04/17 00:12:52;;;;;;;1.60;1.40;;;;;;;2.91;75.18;99297.70;105103;1271;77133;-27
2022/04/17 00:15:21;;;;;;;7.50;1.50;;;;;;;2.89;74.95;99302.25;105106;1271;74716;-28
2022/04/17 00:17:50;;;;;;;2.20;1.50;;;;;;;2.71;75.63;99299.42;105000;1272;62114;-26
2022/04/17 00:20:18;;;;;;;2.00;1.50;;;;;;;2.72;75.71;99304.05;104837;1271;61262;-27
2022/04/17 00:22:47;;;;;;;1.70;1.00;;;;;;;2.47;76.33;99300.85;104938;1271;75663;-26
2022/04/17 00:25:16;;;;;;;1.60;1.40;;;;;;;2.39;77.05;99304.45;105166;1271;75835;-27
2022/04/17 00:27:47;;;;;;;2.10;1.30;;;;;;;2.67;76.06;99298.40;105032;1271;73375;-27
2022/04/17 00:30:16;;;;;;;1.90;1.30;;;;;;;3.15;74.48;99298.29;104988;1271;61048;-27
2022/04/17 00:32:45;;;;;;;1.40;1.30;;;;;;;2.98;74.66;99297.73;104941;1271;61009;-27
2022/04/17 00:35:14;;;;;;;1.70;1.50;;;;;;;2.77;75.40;99298.67;104903;1271;74312;-27
2022/04/17 00:37:43;;;;;;;1.50;1.30;;;;;;;2.57;76.08;99301.25;104963;1271;76341;-27
2022/04/17 00:40:13;;;;;;;2.10;1.90;;;;;;;2.54;76.34;99302.77;104838;1271;74610;-27
2022/04/17 00:42:42;;;;;;;1.30;1.00;;;;;;;2.36;77.16;99305.45;104877;1271;61236;-27
2022/04/17 00:45:11;;;;;;;1.30;1.20;;;;;;;2.57;76.88;99298.34;104948;1271;61019;-26
2022/04/17 00:47:40;;;;;;;0.80;0.80;;;;;;;3.05;74.77;99296.89;104867;1272;75504;-27
2022/04/17 00:50:09;;;;;;;2.10;1.10;;;;;;;3.03;74.36;99294.74;105145;1271;74601;-27
2022/04/17 00:52:38;;;;;;;2.50;1.50;;;;;;;2.70;74.99;99291.95;105062;1271;73172;-27
2022/04/17 00:55:08;;;;;;;1.60;1.30;;;;;;;2.58;75.41;99296.93;105081;1271;61038;-27
2022/04/17 00:57:56;;;;;;;2.10;1.60;;;;;;;2.25;76.17;99296.64;104781;1271;61156;-27
2022/04/17 01:00:24;;;;;;;0.80;0.70;;;;;;;2.24;76.46;99296.02;104966;1270;75496;-27
2022/04/17 01:02:52;;;;;;;1.30;1.10;;;;;;;2.56;75.27;99295.98;105050;1271;76303;-28
2022/04/17 01:05:22;;;;;;;1.30;1.00;;;;;;;2.87;73.91;99288.77;104999;1271;74374;-27
2022/04/17 01:07:52;;;;;;;1.20;1.00;;;;;;;2.86;73.54;99290.16;105160;1271;61120;-27
2022/04/17 01:10:35;;;;;;;2.30;1.60;;;;;;;2.62;74.28;99284.58;104716;1271;61230;-27
2022/04/17 01:13:04;;;;;;;2.40;1.50;;;;;;;2.49;74.61;99279.15;104879;1272;75495;-27
2022/04/17 01:15:49;;;;;;;2.90;1.80;;;;;;;2.23;75.72;99279.95;104949;1271;76000;-27
2022/04/17 01:18:19;;;;;;;1.60;1.40;;;;;;;2.14;76.02;99279.64;104851;1271;73538;-27
2022/04/17 01:20:51;;;;;;;2.40;1.60;;;;;;;2.24;75.92;99273.23;104943;1271;61810;-27
2022/04/17 01:28:55;;;;;;;1.60;1.50;;;;;;;2.57;74.30;99271.45;104931;1271;75969;-26
2022/04/17 01:31:28;;;;;;;1.90;1.30;;;;;;;2.44;74.49;99260.00;104830;1271;74954;-26
2022/04/17 01:33:57;;;;;;;2.70;2.20;;;;;;;2.36;75.27;99267.22;105019;1271;61481;-26
2022/04/17 01:36:25;;;;;;;1.50;1.30;;;;;;;2.23;75.69;99262.29;105106;1271;62095;-26
2022/04/17 01:38:54;;;;;;;1.80;1.30;;;;;;;2.43;75.02;99263.48;105170;1274;74215;-26
2022/04/17 01:41:25;;;;;;;2.00;1.60;;;;;;;2.69;73.97;99261.46;105068;1271;75822;-26
2022/04/17 01:43:53;;;;;;;1.90;1.30;;;;;;;2.74;73.73;99260.70;105144;1271;73123;-26
2022/04/17 01:46:23;;;;;;;2.20;1.40;;;;;;;2.69;74.12;99259.77;105059;1271;61057;-25
2022/04/17 01:48:52;;;;;;;2.30;1.10;;;;;;;2.45;75.00;99259.30;105147;1271;61143;-26
2022/04/17 01:51:21;;;;;;;2.10;1.80;;;;;;;2.29;75.91;99255.67;105121;1271;75598;-26
2022/04/17 01:53:50;;;;;;;2.30;1.20;;;;;;;2.32;75.77;99259.00;105059;1271;75971;-27
2022/04/17 01:56:22;;;;;;;1.10;0.90;;;;;;;2.74;74.67;99255.39;104850;1271;74530;-26
2022/04/17 01:58:52;;;;;;;1.30;1.10;;;;;;;2.88;74.06;99251.35;104858;1271;61205;-26
2022/04/17 02:01:21;;;;;;;1.10;0.80;;;;;;;2.70;74.55;99256.29;105095;1272;61593;-27
2022/04/17 02:03:49;;;;;;;3.00;1.60;;;;;;;2.64;75.17;99252.63;105060;1271;75497;-26
2022/04/17 02:06:18;;;;;;;5.00;1.70;;;;;;;2.40;75.97;99252.45;104872;1271;76201;-26
2022/04/17 02:08:47;;;;;;;2.10;1.20;;;;;;;2.26;76.80;99254.78;105118;1271;74371;-26
2022/04/17 02:11:20;;;;;;;1.50;1.00;;;;;;;2.40;76.31;99255.22;105108;1271;61144;-26
2022/04/17 02:13:51;;;;;;;1.10;1.00;;;;;;;2.53;75.66;99256.85;105090;1271;61771;-26
2022/04/17 02:16:40;;;;;;;2.40;1.60;;;;;;;2.48;75.62;99259.30;104877;1271;74918;-26
2022/04/17 02:19:08;;;;;;;1.70;1.40;;;;;;;2.33;76.36;99256.02;105081;1271;75961;-26
2022/04/17 02:21:37;;;;;;;2.40;1.30;;;;;;;2.31;76.82;99261.96;104843;1271;74150;-28
2022/04/17 02:24:05;;;;;;;1.70;1.20;;;;;;;2.22;76.89;99256.70;104951;1270;61824;-26
2022/04/17 02:26:36;;;;;;;2.30;1.40;;;;;;;2.29;76.87;99260.67;104923;1271;61144;-26
2022/04/17 02:29:05;;;;;;;1.40;0.70;;;;;;;2.59;75.57;99255.55;105161;1271;75271;-28
2022/04/17 02:31:33;;;;;;;2.80;1.10;;;;;;;2.75;74.93;99255.02;105155;1271;76198;-28
2022/04/17 02:34:02;;;;;;;1.40;1.00;;;;;;;2.57;75.15;99248.28;105117;1271;73068;-28
2022/04/17 02:36:31;;;;;;;1.70;1.30;;;;;;;2.38;76.17;99251.70;104882;1271;61129;-28
2022/04/17 02:38:59;;;;;;;1.90;1.60;;;;;;;2.17;76.90;99258.27;104798;1271;61976;-26
2022/04/17 02:41:30;;;;;;;2.80;1.30;;;;;;;2.16;77.01;99258.81;104902;1271;75600;-26
2022/04/17 02:43:58;;;;;;;2.80;1.80;;;;;;;2.54;75.66;99254.08;105024;1271;76056;-26
2022/04/17 02:49:32;;;;;;;1.20;1.00;;;;;;;2.58;75.30;99251.15;104576;1278;61408;-26
2022/04/17 02:52:00;;;;;;;2.00;1.80;;;;;;;2.45;75.76;99252.74;105019;1271;61117;-26
2022/04/17 02:54:29;;;;;;;1.70;1.20;;;;;;;2.37;75.97;99257.06;105066;1271;75587;-26
2022/04/17 02:56:59;;;;;;;2.10;1.10;;;;;;;2.15;76.66;99253.58;104975;1271;76029;-26
2022/04/17 02:59:28;;;;;;;1.80;1.20;;;;;;;2.30;76.24;99252.05;104896;1271;72793;-26
2022/04/17 03:07:47;;;;;;;1.80;1.50;;;;;;;2.28;76.07;99259.87;105119;1271;74542;-26
2022/04/17 03:10:16;;;;;;;1.60;1.40;;;;;;;2.16;76.19;99263.27;105008;1271;76055;-26
2022/04/17 03:12:45;;;;;;;1.10;1.00;;;;;;;2.04;76.21;99256.58;104919;1271;74363;-25
2022/04/17 03:15:13;;;;;;;2.10;1.30;;;;;;;2.31;75.18;99253.70;104984;1271;61216;-26
2022/04/17 03:17:42;;;;;;;1.40;0.90;;;;;;;2.57;74.17;99253.79;105143;1271;61147;-26
2022/04/17 03:20:11;;;;;;;2.30;1.60;;;;;;;2.38;74.85;99252.41;104976;1271;75503;-26
2022/04/17 03:22:43;;;;;;;1.50;1.40;;;;;;;2.11;75.94;99252.22;104949;1271;77632;-26
2022/04/17 03:25:20;;;;;;;3.80;1.00;;;;;;;1.99;76.62;99255.98;104836;1271;74403;-26
2022/04/17 03:28:08;;;;;;;1.60;1.00;;;;;;;2.14;76.91;99259.40;105103;1271;62572;-26
2022/04/17 03:30:39;;;;;;;1.10;0.80;;;;;;;2.47;76.14;99260.23;104855;1270;355870;-27
2022/04/17 03:33:07;;;;;;;1.80;1.50;;;;;;;2.57;75.64;99259.28;105133;1271;75760;-27
2022/04/17 03:35:39;;;;;;;1.00;0.90;;;;;;;2.22;77.28;99262.70;105132;1271;76282;-28
2022/04/17 03:38:09;;;;;;;1.20;1.10;;;;;;;2.06;77.86;99265.45;105138;1271;74447;-27
2022/04/17 03:40:39;;;;;;;1.70;1.40;;;;;;;1.93;79.03;99273.48;105131;1271;61073;-27
2022/04/17 03:43:07;;;;;;;2.10;1.60;;;;;;;1.91;79.49;99271.37;105042;1271;61013;-27
2022/04/17 03:45:36;;;;;;;1.50;1.20;;;;;;;2.35;77.97;99277.53;105017;1271;75573;-27
2022/04/17 03:48:05;;;;;;;1.50;1.00;;;;;;;2.29;77.65;99276.24;105192;1271;76280;-27
2022/04/17 03:50:34;;;;;;;1.10;1.00;;;;;;;2.24;78.18;99282.30;104573;1271;72967;-27
2022/04/17 03:53:03;;;;;;;1.10;1.00;;;;;;;2.14;78.05;99280.48;105116;1271;61141;-26
2022/04/17 03:55:44;;;;;;;1.60;1.30;;;;;;;1.96;79.35;99281.95;104941;1271;61017;-26
2022/04/17 03:58:14;;;;;;;2.60;1.40;;;;;;;2.20;78.99;99279.56;105075;1271;75327;-26
2022/04/17 04:00:42;;;;;;;1.30;1.10;;;;;;;2.43;77.64;99284.73;105041;1271;75927;-26
2022/04/17 04:03:12;;;;;;;1.90;1.30;;;;;;;2.31;78.68;99289.38;104924;1271;74402;-26
2022/04/17 04:05:41;;;;;;;3.80;1.90;;;;;;;2.16;79.25;99286.59;105021;1271;61111;-26
2022/04/17 04:08:09;;;;;;;2.20;1.30;;;;;;;2.18;79.33;99289.09;104860;1271;61840;-26
2022/04/17 04:10:38;;;;;;;1.70;1.60;;;;;;;2.17;79.66;99287.90;105047;1271;75273;-26
2022/04/17 04:13:07;;;;;;;3.30;1.30;;;;;;;2.33;78.77;99290.31;105125;1271;76372;-26
2022/04/17 04:15:36;;;;;;;1.60;1.30;;;;;;;2.53;78.05;99287.55;105048;1271;74262;-26
2022/04/17 04:18:04;;;;;;;1.70;1.50;;;;;;;2.39;78.29;99287.31;105168;1270;61160;-26
2022/04/17 04:20:42;;;;;;;1.60;1.30;;;;;;;2.35;78.76;99292.27;105056;1271;61093;-28
2022/04/17 04:23:11;;;;;;;2.20;1.50;;;;;;;2.13;79.09;99298.66;104998;1271;74702;-26
2022/04/17 04:25:40;;;;;;;1.40;1.30;;;;;;;2.16;79.31;99298.58;104931;1271;75968;-26
2022/04/17 04:28:38;;;;;;;2.70;1.70;;;;;;;2.37;78.27;99299.70;105053;1271;75639;-26
2022/04/17 04:31:10;;;;;;;2.20;1.30;;;;;;;2.52;78.29;99306.79;105062;1271;61239;-27
2022/04/17 04:33:40;;;;;;;2.00;1.50;;;;;;;2.67;77.97;99305.10;104843;1271;62184;-26
2022/04/17 04:36:11;;;;;;;3.30;2.60;;;;;;;2.33;79.12;99304.85;104816;1271;74493;-26
2022/04/17 04:38:40;;;;;;;5.00;3.50;;;;;;;2.20;80.02;99307.83;104760;1271;76071;-27
2022/04/17 04:41:09;;;;;;;1.10;1.00;;;;;;;2.41;79.46;99303.30;104851;1271;74600;-26
2022/04/17 04:43:37;;;;;;;2.10;1.80;;;;;;;2.66;77.99;99305.66;105086;1271;61859;-26
2022/04/17 04:46:06;;;;;;;2.10;1.60;;;;;;;2.47;77.64;99303.23;105029;1271;62231;-27
2022/04/17 04:51:32;;;;;;;1.90;1.70;;;;;;;2.34;78.16;99311.50;105076;1271;76787;-27
2022/04/17 04:55:54;;;;;;;2.00;1.80;;;;;;;2.13;78.80;99314.11;101988;1306;601509;-27
2022/04/17 04:58:23;;;;;;;2.10;1.60;;;;;;;2.29;78.09;99317.90;104574;1281;61182;-29
2022/04/17 05:00:51;;;;;;;2.20;1.30;;;;;;;2.40;77.53;99315.35;104446;1284;61828;-28
2022/04/17 05:03:20;;;;;;;2.70;2.00;;;;;;;2.35;78.21;99319.34;104566;1281;72601;-28
2022/04/17 05:05:49;;;;;;;3.00;2.00;;;;;;;2.15;77.63;99321.75;104488;1281;76204;-27
2022/04/17 05:08:20;;;;;;;1.60;1.20;;;;;;;2.03;77.46;99318.95;104237;1282;74354;-26
2022/04/17 05:10:54;;;;;;;2.70;2.00;;;;;;;2.34;76.16;99321.45;104478;1280;61067;-28
2022/04/17 05:13:23;;;;;;;1.90;1.20;;;;;;;2.64;75.20;99324.09;104637;1281;61023;-27
2022/04/17 05:15:53;;;;;;;3.70;1.50;;;;;;;2.64;75.07;99323.40;104326;1281;73014;-27
2022/04/17 05:18:22;;;;;;;12.60;6.20;;;;;;;2.63;75.38;99323.65;104456;1281;75200;-27
2022/04/17 05:20:51;;;;;;;5.10;2.90;;;;;;;2.53;75.91;99324.08;104401;1281;74049;-27
2022/04/17 05:23:26;;;;;;;5.80;4.20;;;;;;;2.37;76.55;99327.83;104431;1281;61170;-27
2022/04/17 05:25:56;;;;;;;2.10;1.40;;;;;;;2.51;76.36;99328.27;104482;1281;61116;-27
2022/04/17 05:28:30;;;;;;;1.60;1.40;;;;;;;2.59;74.81;99324.98;104091;1281;74748;-26
2022/04/17 05:31:06;;;;;;;2.20;1.80;;;;;;;2.61;74.53;99330.23;104240;1281;76058;-27
2022/04/17 05:33:35;;;;;;;4.50;2.50;;;;;;;2.67;74.51;99332.53;104554;1280;72510;-27
2022/04/17 05:36:17;;;;;;;2.30;1.80;;;;;;;2.59;74.84;99329.47;104564;1281;61252;-27
2022/04/17 05:38:45;;;;;;;2.60;1.80;;;;;;;2.35;74.99;99322.45;104704;1281;61864;-27
2022/04/17 05:41:14;;;;;;;4.30;2.40;;;;;;;2.44;75.34;99326.17;104652;1281;74988;-27
2022/04/17 05:43:43;;;;;;;1.90;1.70;;;;;;;2.61;74.69;99327.80;104528;1281;74918;-26
2022/04/17 05:46:12;;;;;;;1.80;1.40;;;;;;;3.01;73.02;99320.73;104501;1281;74400;-27
2022/04/17 05:48:41;;;;;;;2.50;1.90;;;;;;;2.90;71.95;99317.97;104276;1281;62046;-27
2022/04/17 05:51:09;;;;;;;3.60;1.60;;;;;;;3.00;71.63;99324.22;104518;1281;61133;-27
2022/04/17 05:53:39;;;;;;;2.50;2.00;;;;;;;2.87;72.85;99322.05;104518;1281;74932;-27
2022/04/17 05:56:07;;;;;;;3.20;2.10;;;;;;;2.84;73.00;99322.50;104525;1281;76091;-27
2022/04/17 05:58:36;;;;;;;7.30;3.10;;;;;;;2.74;73.58;99328.29;104580;1281;74418;-26
2022/04/17 06:01:04;;;;;;;4.30;2.20;;;;;;;2.69;73.56;99327.64;104603;1281;61641;-26
2022/04/17 06:03:34;;;;;;;3.40;2.20;;;;;;;3.14;72.65;99327.35;104575;1281;61025;-26
2022/04/17 06:06:02;;;;;;;2.20;1.60;;;;;;;3.12;72.44;99329.83;104507;1281;73799;-26
2022/04/17 06:08:32;;;;;;;2.00;1.60;;;;;;;3.04;73.27;99330.52;104492;1281;75772;-26
2022/04/17 06:11:02;;;;;;;3.70;1.50;;;;;;;2.71;74.74;99329.62;104504;1281;74189;-26
2022/04/17 06:13:30;;;;;;;3.20;1.90;;;;;;;2.44;76.54;99332.49;104281;1281;61233;-27
2022/04/17 06:16:14;;;;;;;2.30;1.70;;;;;;;2.38;77.16;99335.86;104313;1281;61127;-26
2022/04/17 06:18:45;;;;;;;4.10;2.20;;;;;;;2.42;76.52;99333.44;104260;1281;75411;-28
2022/04/17 06:21:34;;;;;;;2.30;1.80;;;;;;;2.80;75.41;99328.35;104204;1281;76040;-28
2022/04/17 06:24:02;;;;;;;1.90;1.40;;;;;;;2.92;74.14;99330.23;104249;1281;74209;-27
2022/04/17 06:26:33;;;;;;;2.00;1.80;;;;;;;2.92;73.98;99331.42;104235;1281;61143;-27
2022/04/17 06:29:05;;;;;;;2.10;1.60;;;;;;;2.95;74.29;99333.02;104124;1281;61069;-28
2022/04/17 06:31:34;;;;;;;3.90;1.70;;;;;;;2.71;74.79;99327.91;104264;1281;73534;-26
2022/04/17 06:34:03;;;;;;;2.30;1.60;;;;;;;2.62;75.12;99327.09;104377;1281;75865;-27
2022/04/17 06:36:32;;;;;;;3.50;1.70;;;;;;;2.59;76.14;99332.36;104224;1281;74202;-27
2022/04/17 06:39:02;;;;;;;2.80;2.10;;;;;;;2.77;76.32;99330.19;104348;1281;61205;-26
2022/04/17 06:41:51;;;;;;;1.90;1.70;;;;;;;2.98;76.18;99328.59;104330;1281;61159;-26
2022/04/17 06:44:19;;;;;;;2.30;1.60;;;;;;;2.88;76.82;99331.44;104295;1280;74912;-26
2022/04/17 06:46:50;;;;;;;2.90;1.80;;;;;;;2.68;77.26;99334.55;104424;1281;75798;-27
2022/04/17 06:49:39;;;;;;;3.10;1.70;;;;;;;2.70;78.67;99341.46;104373;1281;75403;-26
2022/04/17 06:52:09;;;;;;;1.60;1.50;;;;;;;3.09;77.87;99342.98;104222;1281;61251;-26
2022/04/17 06:54:38;;;;;;;8.10;3.90;;;;;;;2.99;76.66;99343.98;104321;1281;61071;-26
2022/04/17 06:57:06;;;;;;;1.60;1.40;;;;;;;2.89;78.44;99351.10;104256;1281;73777;-26
2022/04/17 06:59:35;;;;;;;3.40;2.60;;;;;;;2.66;79.27;99352.62;104352;1281;76227;-26
2022/04/17 07:02:03;;;;;;;3.30;2.30;;;;;;;2.63;79.05;99357.04;104399;1280;74357;-26
2022/04/17 07:04:32;;;;;;;2.20;1.60;;;;;;;2.62;80.33;99356.42;104611;1280;61032;-25
2022/04/17 07:07:01;;;;;;;2.50;1.90;;;;;;;3.13;78.75;99353.95;104523;1281;62041;-25
2022/04/17 07:09:30;;;;;;;3.80;2.00;;;;;;;3.84;77.36;99347.23;104525;1281;74916;-25
2022/04/17 07:11:59;;;;;;;1.80;1.40;;;;;;;4.04;75.76;99347.61;104640;1281;76471;-26
2022/04/17 07:14:28;;;;;;;3.00;2.10;;;;;;;3.31;76.45;99349.91;104494;1281;74369;-26
2022/04/17 07:16:59;;;;;;;2.40;2.00;;;;;;;2.93;77.37;99356.56;104573;1281;61158;-26
2022/04/17 07:19:28;;;;;;;1.70;1.20;;;;;;;2.67;78.55;99351.06;104568;1281;61878;-26
2022/04/17 07:21:57;;;;;;;1.70;1.30;;;;;;;2.67;79.15;99357.73;104416;1281;74772;-26
2022/04/17 07:24:26;;;;;;;1.90;1.40;;;;;;;2.62;77.69;99351.59;104285;1281;75899;-26
2022/04/17 07:26:56;;;;;;;3.40;1.60;;;;;;;2.93;76.26;99349.89;104335;1281;74308;-26
2022/04/17 07:29:25;;;;;;;2.30;1.70;;;;;;;3.05;75.44;99345.42;104422;1280;61126;-25
2022/04/17 07:31:56;;;;;;;2.30;1.70;;;;;;;3.58;74.65;99343.97;104524;1281;61954;-26
2022/04/17 07:34:26;;;;;;;2.00;1.60;;;;;;;3.83;72.46;99340.91;104291;1280;74544;-27
2022/04/17 07:36:56;;;;;;;2.10;1.70;;;;;;;3.98;71.75;99338.14;104783;1275;76032;-26
2022/04/17 07:39:24;;;;;;;3.40;2.30;;;;;;;4.07;69.21;99341.95;105109;1275;74209;-26
2022/04/17 07:41:54;;;;;;;2.30;1.60;;;;;;;4.19;69.77;99347.92;104949;1275;62495;-25
2022/04/17 07:44:25;;;;;;;4.40;2.30;;;;;;;3.99;68.44;99351.64;105098;1274;61008;-27
2022/04/17 07:47:13;;;;;;;2.30;1.80;;;;;;;3.82;68.33;99356.43;104863;1274;76052;-26
2022/04/17 07:49:43;;;;;;;2.80;1.40;;;;;;;3.73;68.87;99348.45;105070;1274;75811;-26
2022/04/17 07:52:12;;;;;;;2.30;1.90;;;;;;;3.70;67.95;99349.41;104621;1275;74418;-26
2022/04/17 07:54:47;;;;;;;2.50;1.70;;;;;;;3.64;67.66;99347.84;104788;1274;61135;-26
2022/04/17 07:57:17;;;;;;;3.30;2.20;;;;;;;3.53;67.22;99345.94;104766;1273;61108;-27
2022/04/17 07:59:57;;;;;;;3.00;2.10;;;;;;;3.87;66.62;99343.30;104875;1274;75837;-26
2022/04/17 08:02:50;;;;;;;2.20;1.30;;;;;;;4.08;64.57;99337.27;105071;1274;75804;-25
2022/04/17 08:05:21;;;;;;;2.10;1.30;;;;;;;4.38;64.47;99342.19;104684;1274;74423;-26
2022/04/17 08:08:10;;;;;;;1.80;1.50;;;;;;;4.06;63.59;99338.23;104789;1275;62486;-26
2022/04/17 08:10:38;;;;;;;2.80;1.70;;;;;;;3.95;64.11;99337.94;105152;1274;61055;-26
2022/04/17 08:13:19;;;;;;;3.70;1.90;;;;;;;4.18;64.19;99340.05;104718;1274;76215;-27
2022/04/17 08:15:50;;;;;;;2.90;1.80;;;;;;;3.95;64.73;99335.52;104740;1273;76417;-26
2022/04/17 08:18:38;;;;;;;5.60;3.30;;;;;;;3.81;64.95;99334.50;105111;1265;74380;-26
2022/04/17 08:21:07;;;;;;;4.60;2.90;;;;;;;3.77;65.68;99334.88;105346;1265;61130;-26
2022/04/17 08:23:51;;;;;;;4.40;2.70;;;;;;;3.84;66.17;99339.31;105219;1265;61035;-26
2022/04/17 08:26:25;;;;;;;3.10;2.60;;;;;;;3.99;65.14;99340.48;105406;1265;74763;-25
2022/04/17 08:28:53;;;;;;;4.20;2.30;;;;;;;4.10;64.51;99337.55;105005;1268;76029;-27
2022/04/17 08:31:23;;;;;;;1.80;1.60;;;;;;;4.17;64.64;99336.31;105080;1266;74186;-28
2022/04/17 08:33:53;;;;;;;4.20;3.10;;;;;;;4.11;64.70;99331.98;105284;1266;61242;-26
2022/04/17 08:36:22;;;;;;;7.00;2.70;;;;;;;4.00;64.55;99332.88;105278;1266;61708;-29
2022/04/17 08:38:51;;;;;;;3.20;1.20;;;;;;;3.97;64.61;99331.96;105286;1266;72645;-29
2022/04/17 08:41:21;;;;;;;2.40;1.90;;;;;;;3.72;64.93;99325.14;105248;1265;75126;-27
2022/04/17 08:43:50;;;;;;;2.40;1.90;;;;;;;3.49;65.66;99328.13;105191;1268;74620;-26
2022/04/17 08:46:19;;;;;;;2.20;1.30;;;;;;;3.66;66.62;99328.34;105157;1268;61363;-26
2022/04/17 08:48:48;;;;;;;2.00;1.60;;;;;;;3.77;65.73;99325.92;105076;1266;61131;-28
2022/04/17 08:51:40;;;;;;;1.70;1.40;;;;;;;3.88;65.83;99330.90;105184;1266;74818;-28
2022/04/17 08:54:10;;;;;;;2.40;1.80;;;;;;;3.86;66.32;99330.79;105096;1268;75704;-29
2022/04/17 08:56:38;;;;;;;2.50;1.60;;;;;;;3.98;65.83;99327.46;105268;1269;74243;-27
2022/04/17 08:59:07;;;;;;;1.70;1.20;;;;;;;4.07;64.41;99316.37;105251;1265;61015;-26
2022/04/17 09:01:36;;;;;;;3.10;2.30;;;;;;;4.04;63.93;99317.90;105251;1265;61023;-26
2022/04/17 09:04:05;;;;;;;1.80;1.50;;;;;;;4.46;63.15;99323.15;105274;1266;72917;-26
2022/04/17 09:06:34;;;;;;;2.60;2.10;;;;;;;4.79;60.97;99323.33;105147;1268;76119;-26
2022/04/17 09:09:04;;;;;;;2.00;1.50;;;;;;;4.93;60.32;99315.76;105053;1266;74216;-26
2022/04/17 09:11:34;;;;;;;1.70;1.40;;;;;;;4.58;59.55;99310.17;105512;1268;61037;-25
2022/04/17 09:14:05;;;;;;;1.70;1.50;;;;;;;4.80;59.57;99308.35;105489;1268;61032;-25
2022/04/17 09:16:35;;;;;;;1.20;1.00;;;;;;;4.75;59.11;99304.14;105278;1265;75521;-25
2022/04/17 09:19:17;;;;;;;2.70;1.10;;;;;;;4.72;59.90;99301.56;104994;1268;76182;-27
2022/04/17 09:21:46;;;;;;;1.60;1.10;;;;;;;5.13;59.30;99293.67;104862;1266;74419;-26
2022/04/17 09:24:36;;;;;;;0.90;0.80;;;;;;;5.01;57.45;99289.13;105070;1268;61019;-25
2022/04/17 09:27:06;;;;;;;1.70;1.10;;;;;;;5.02;57.16;99285.34;104845;1268;61083;-25
2022/04/17 09:29:36;;;;;;;3.30;1.40;;;;;;;4.97;57.20;99292.98;104875;1271;75496;-25
2022/04/17 09:32:06;;;;;;;1.60;1.10;;;;;;;5.59;58.22;99291.96;105067;1266;76233;-25
2022/04/17 09:34:45;;;;;;;1.60;1.20;;;;;;;5.94;55.97;99291.88;105011;1266;74639;-25
2022/04/17 09:37:35;;;;;;;3.20;1.20;;;;;;;5.80;55.17;99293.88;105174;1265;61437;-26
2022/04/17 09:40:07;;;;;;;1.90;1.40;;;;;;;5.35;55.52;99287.45;105091;1268;62064;-26
2022/04/17 09:42:36;;;;;;;2.60;1.90;;;;;;;5.15;56.92;99294.92;104995;1265;74414;-25
2022/04/17 09:45:07;;;;;;;2.70;1.10;;;;;;;4.64;61.55;99298.33;105304;1265;76240;-25
2022/04/17 09:47:36;;;;;;;5.60;1.90;;;;;;;4.13;64.57;99302.48;104947;1269;73327;-25
2022/04/17 09:50:06;;;;;;;2.10;1.40;;;;;;;4.72;63.62;99304.31;105283;1265;61138;-27
2022/04/17 09:52:44;;;;;;;4.40;1.40;;;;;;;4.85;61.74;99313.93;105074;1266;62015;-26
2022/04/17 09:55:12;;;;;;;1.80;1.00;;;;;;;4.65;59.43;99305.66;105009;1265;75622;-26
2022/04/17 09:57:43;;;;;;;1.00;0.60;;;;;;;4.50;61.34;99303.36;105069;1268;76164;-26
2022/04/17 10:00:12;;;;;;;2.00;1.10;;;;;;;4.32;60.60;99305.15;104942;1268;74613;-26
2022/04/17 10:02:43;;;;;;;1.50;1.00;;;;;;;4.10;59.46;99299.39;105012;1268;61201;-26
2022/04/17 10:05:23;;;;;;;2.20;1.30;;;;;;;3.86;59.85;99294.91;104838;1269;61120;-26
2022/04/17 10:07:53;;;;;;;1.50;0.90;;;;;;;4.07;59.98;99291.64;105090;1268;75159;-26
2022/04/17 10:10:21;;;;;;;2.50;1.40;;;;;;;4.45;59.79;99292.30;104987;1268;75941;-26
2022/04/17 10:12:50;;;;;;;3.00;1.00;;;;;;;4.83;60.66;99293.71;105103;1268;74549;-25
2022/04/17 10:15:20;;;;;;;1.20;0.90;;;;;;;5.07;58.58;99291.41;105036;1268;61117;-26
2022/04/17 10:17:48;;;;;;;1.30;1.00;;;;;;;4.79;54.76;99282.21;105099;1268;61252;-26
2022/04/17 10:20:21;;;;;;;1.10;0.80;;;;;;;4.90;53.06;99279.59;104990;1269;75606;-25
2022/04/17 10:22:57;;;;;;;1.60;0.70;;;;;;;4.61;53.32;99278.39;105024;1269;75873;-25
2022/04/17 10:25:26;;;;;;;2.10;1.20;;;;;;;5.15;52.00;99271.34;104993;1268;74203;-25
2022/04/17 10:28:00;;;;;;;3.20;1.00;;;;;;;6.02;49.84;99263.86;105000;1268;61131;-27
2022/04/17 10:30:34;;;;;;;1.80;0.90;;;;;;;6.61;47.75;99254.67;104957;1268;61151;-25
2022/04/17 10:33:27;;;;;;;3.50;1.10;;;;;;;6.33;45.53;99241.88;105004;1268;75513;-25
2022/04/17 10:36:21;;;;;;;2.00;0.90;;;;;;;7.16;46.21;99240.71;105080;1268;75016;-26
2022/04/17 10:38:53;;;;;;;1.10;0.60;;;;;;;7.37;45.24;99228.30;104984;1268;73380;-26
2022/04/17 10:41:25;;;;;;;1.70;0.90;;;;;;;7.31;44.98;99235.40;104945;1268;61063;-25
2022/04/17 10:43:58;;;;;;;1.30;0.70;;;;;;;7.06;45.74;99224.60;105151;1271;61046;-25
2022/04/17 10:46:26;;;;;;;2.40;1.30;;;;;;;7.35;45.06;99227.18;105112;1271;76362;-25
2022/04/17 10:49:05;;;;;;;1.00;0.60;;;;;;;7.47;44.13;99223.52;105513;1268;76010;-25
2022/04/17 10:51:38;;;;;;;1.00;0.70;;;;;;;7.42;44.68;99221.59;105009;1271;73150;-25
2022/04/17 10:54:10;;;;;;;1.30;0.90;;;;;;;7.28;44.05;99212.50;105098;1269;61160;-25
2022/04/17 10:56:40;;;;;;;2.00;1.10;;;;;;;7.31;44.81;99212.61;105007;1271;62320;-25
2022/04/17 10:59:15;;;;;;;1.50;0.80;;;;;;;6.34;46.24;99213.54;105367;1268;76115;-25
2022/04/17 11:01:46;;;;;;;1.00;0.90;;;;;;;5.77;46.78;99214.84;105307;1270;76029;-25
2022/04/17 11:04:26;;;;;;;13.10;2.50;;;;;;;5.14;49.96;99229.91;105469;1268;73635;-25
2022/04/17 11:07:09;;;;;;;3.50;0.80;;;;;;;4.49;56.22;99255.28;105356;1268;61301;-25
2022/04/17 11:10:20;;;;;;;3.60;1.30;;;;;;;3.84;66.26;99268.55;105394;1269;62964;-25
2022/04/17 11:12:51;;;;;;;1.70;1.40;;;;;;;3.42;70.30;99269.90;105077;1268;75529;-26
2022/04/17 11:15:25;;;;;;;1.10;1.00;;;;;;;3.00;72.65;99278.73;105005;1270;75784;-26
2022/04/17 11:18:00;;;;;;;0.90;0.60;;;;;;;2.42;77.45;99278.95;104997;1269;74412;-25
2022/04/17 11:20:29;;;;;;;1.40;1.10;;;;;;;2.22;78.25;99278.59;104781;1271;61157;-24
2022/04/17 11:22:57;;;;;;;1.30;0.90;;;;;;;2.21;79.32;99282.27;105150;1268;61877;-24
2022/04/17 11:25:27;;;;;;;0.90;0.80;;;;;;;2.20;80.59;99285.55;105370;1268;75865;-24
2022/04/17 11:28:02;;;;;;;1.80;1.00;;;;;;;2.27;79.54;99280.10;105364;1268;75963;-24
2022/04/17 11:30:54;;;;;;;1.70;0.90;;;;;;;1.68;80.70;99279.86;105333;1268;74399;-24
2022/04/17 11:33:23;;;;;;;1.50;0.50;;;;;;;1.88;81.91;99275.92;105073;1268;61491;-24
2022/04/17 11:35:52;;;;;;;1.80;0.90;;;;;;;1.95;80.46;99275.48;105288;1268;61127;-24
2022/04/17 11:38:21;;;;;;;1.00;0.90;;;;;;;2.16;78.23;99262.94;105126;1268;75519;-24
2022/04/17 11:40:50;;;;;;;1.50;0.70;;;;;;;2.31;76.29;99254.04;104969;1271;75766;-24
2022/04/17 11:43:19;;;;;;;0.60;0.50;;;;;;;2.29;74.59;99245.58;105303;1268;74704;-24
2022/04/17 11:45:50;;;;;;;2.10;1.00;;;;;;;2.16;73.28;99238.27;105521;1268;61158;-24
2022/04/17 11:48:20;;;;;;;1.20;0.80;;;;;;;2.32;72.44;99233.98;105260;1268;61126;-24
2022/04/17 11:50:53;;;;;;;1.60;0.90;;;;;;;2.40;71.71;99233.60;105212;1268;75572;-26
2022/04/17 11:53:22;;;;;;;1.20;0.80;;;;;;;2.60;71.35;99231.89;104965;1271;74941;-24
2022/04/17 11:55:51;;;;;;;0.90;0.90;;;;;;;3.02;70.93;99224.13;105200;1268;73198;-24
2022/04/17 11:58:25;;;;;;;0.70;0.50;;;;;;;3.76;67.18;99222.59;104986;1268;61133;-25
2022/04/17 12:01:01;;;;;;;;;;;;;;;4.44;65.11;99229.25;104866;1271;62010;-26
2022/04/17 12:03:44;;;;;;;3.60;0.70;;;;;;;4.63;62.21;99221.87;105387;1268;75506;-27
2022/04/17 12:06:14;;;;;;;2.90;1.40;;;;;;;4.84;61.59;99219.86;105026;1268;75043;-25
2022/04/17 12:08:43;;;;;;;0.90;0.70;;;;;;;4.97;62.47;99218.14;105176;1268;72816;-25
2022/04/17 12:11:12;;;;;;;0.70;0.60;;;;;;;5.16;61.37;99212.77;105079;1268;61137;-25
2022/04/17 12:14:01;;;;;;;0.80;0.60;;;;;;;5.12;57.68;99205.94;105196;1268;61864;-26